Time;durP1;ratioP1;P1;durP2;ratioP2;P2;SDS_P1;SDS_P2;PMS_P1;PMS_P2;Temp;Humidity;BMP_temperature;BMP_pressure;BME280_temperature;BME280_humidity;BME280_pressure;Samples;Min_cycle;Max_cycle;Signal;HPM_P1;HPM_P2
2022/08/05 00:01:19;;;;;;;7.63;6.93;;;22.50;99.90;;;;;;5041802;28;20389;-72
2022/08/05 00:03:48;;;;;;;10.35;7.22;;;22.50;99.90;;;;;;5043962;28;20024;-73
2022/08/05 00:06:15;;;;;;;12.93;7.63;;;22.50;99.90;;;;;;5045734;28;20027;-71
2022/08/05 00:08:41;;;;;;;7.78;6.88;;;22.60;99.90;;;;;;5044085;28;20025;-73
2022/08/05 00:11:10;;;;;;;10.52;7.50;;;22.60;99.90;;;;;;5044809;28;20091;-73
2022/08/05 00:13:37;;;;;;;9.18;6.00;;;22.70;99.90;;;;;;5044304;28;20050;-73
2022/08/05 00:16:04;;;;;;;8.63;6.68;;;22.60;99.90;;;;;;5048847;28;20021;-73
2022/08/05 00:18:29;;;;;;;10.70;6.22;;;22.60;99.90;;;;;;5042113;28;20091;-73
2022/08/05 00:20:55;;;;;;;10.35;6.68;;;22.50;99.90;;;;;;5037998;28;20521;-72
2022/08/05 00:23:21;;;;;;;9.68;6.35;;;22.50;99.90;;;;;;5040929;28;20644;-73
2022/08/05 00:25:47;;;;;;;12.40;6.70;;;22.60;99.90;;;;;;5045892;28;20405;-73
2022/08/05 00:28:14;;;;;;;8.07;6.25;;;22.50;99.90;;;;;;5048630;28;20021;-73
2022/08/05 00:30:40;;;;;;;14.60;6.93;;;22.50;99.90;;;;;;5040902;28;20040;-73
2022/08/05 00:33:06;;;;;;;10.20;6.20;;;22.50;99.90;;;;;;5038591;28;20045;-73
2022/08/05 00:35:31;;;;;;;6.68;5.82;;;22.60;99.90;;;;;;5045290;28;20102;-73
2022/08/05 00:37:57;;;;;;;12.52;6.57;;;22.50;99.90;;;;;;5050200;28;20034;-73
2022/08/05 00:40:25;;;;;;;7.20;6.28;;;22.40;99.90;;;;;;5043937;28;20386;-73
2022/08/05 00:42:51;;;;;;;10.00;6.20;;;22.40;99.90;;;;;;5045811;28;20465;-73
2022/08/05 00:45:17;;;;;;;7.97;6.60;;;22.50;99.90;;;;;;5040180;28;20033;-73
2022/08/05 00:47:43;;;;;;;11.15;6.10;;;22.50;99.90;;;;;;5041380;28;20075;-73
2022/08/05 00:50:09;;;;;;;11.88;6.35;;;22.50;99.90;;;;;;5043170;28;20029;-73
2022/08/05 00:52:34;;;;;;;8.55;6.07;;;22.50;99.90;;;;;;5045381;28;20013;-73
2022/08/05 00:55:01;;;;;;;8.18;6.22;;;22.40;99.90;;;;;;5047388;28;20120;-73
2022/08/05 00:57:27;;;;;;;9.55;6.25;;;22.40;99.90;;;;;;5052108;28;20045;-72
2022/08/05 00:59:52;;;;;;;8.18;6.30;;;22.40;99.90;;;;;;5044425;28;20044;-73
2022/08/05 01:02:19;;;;;;;8.85;6.30;;;22.40;99.90;;;;;;5041586;28;20538;-73
2022/08/05 01:04:44;;;;;;;12.52;6.65;;;22.40;99.90;;;;;;5048617;28;20386;-73
2022/08/05 01:07:10;;;;;;;10.02;6.55;;;22.40;99.90;;;;;;5047417;28;20098;-72
2022/08/05 01:09:36;;;;;;;9.80;7.28;;;22.30;99.90;;;;;;5044452;28;20074;-72
2022/08/05 01:12:07;;;;;;;10.20;6.35;;;22.40;99.90;;;;;;5046438;28;20033;-72
2022/08/05 01:14:36;;;;;;;9.63;6.45;;;22.50;99.90;;;;;;5039621;28;20074;-72
2022/08/05 01:17:05;;;;;;;9.75;8.10;;;22.40;99.90;;;;;;5036356;28;20374;-72
2022/08/05 01:19:46;;;;;;;9.98;6.93;;;22.50;99.90;;;;;;5041127;28;20025;-72
2022/08/05 01:22:27;;;;;;;9.98;6.97;;;22.40;99.90;;;;;;5041517;28;20493;-72
2022/08/05 01:25:01;;;;;;;11.60;7.17;;;22.50;99.90;;;;;;5040355;28;20027;-72
2022/08/05 01:27:53;;;;;;;11.07;7.20;;;22.50;99.90;;;;;;5041865;28;20056;-72
2022/08/05 01:30:18;;;;;;;11.88;8.48;;;22.50;99.90;;;;;;5044434;28;20072;-72
2022/08/05 01:32:48;;;;;;;12.40;8.50;;;22.50;99.90;;;;;;5040094;28;20057;-72
2022/08/05 01:35:21;;;;;;;12.90;7.53;;;22.50;99.90;;;;;;5042615;28;20397;-71
2022/08/05 01:37:52;;;;;;;12.85;8.43;;;22.30;99.90;;;;;;5047244;28;20029;-73
2022/08/05 01:40:20;;;;;;;8.75;7.82;;;22.20;99.90;;;;;;5044456;28;20017;-73
2022/08/05 01:42:49;;;;;;;12.25;8.35;;;22.20;99.90;;;;;;5043531;28;20053;-72
2022/08/05 01:45:15;;;;;;;11.35;7.93;;;22.30;99.90;;;;;;5044357;28;20521;-74
2022/08/05 01:47:43;;;;;;;9.48;7.90;;;22.40;99.90;;;;;;5048024;28;20044;-72
2022/08/05 01:50:17;;;;;;;12.73;8.45;;;22.40;99.90;;;;;;5042155;28;20036;-76
2022/08/05 01:52:45;;;;;;;10.80;8.15;;;22.40;99.90;;;;;;5040700;28;20017;-77
2022/08/05 01:55:13;;;;;;;31.02;10.88;;;22.10;99.90;;;;;;5042248;28;20060;-74
2022/08/05 01:57:42;;;;;;;14.77;8.48;;;21.70;99.90;;;;;;5045125;28;20033;-75
2022/08/05 02:00:09;;;;;;;8.30;6.75;;;21.60;99.90;;;;;;5053726;28;20033;-75
2022/08/05 02:02:47;;;;;;;14.50;8.70;;;21.60;99.90;;;;;;5050255;28;20120;-76
2022/08/05 02:05:14;;;;;;;15.35;8.50;;;21.80;99.90;;;;;;5049329;28;20041;-76
2022/08/05 02:07:42;;;;;;;14.40;9.02;;;21.80;99.90;;;;;;5047634;28;20100;-76
2022/08/05 02:10:09;;;;;;;10.25;8.48;;;21.90;99.90;;;;;;5045733;28;20048;-76
2022/08/05 02:12:50;;;;;;;11.75;8.38;;;21.90;99.90;;;;;;5044368;28;20044;-75
2022/08/05 02:15:27;;;;;;;21.90;10.48;;;21.70;99.90;;;;;;5053863;28;20370;-74
2022/08/05 02:18:03;;;;;;;18.25;9.38;;;21.60;99.90;;;;;;5040805;28;20220;-74
2022/08/05 02:21:10;;;;;;;12.18;10.43;;;21.70;99.90;;;;;;5046498;28;20079;-74
2022/08/05 02:23:39;;;;;;;15.30;9.30;;;21.80;99.90;;;;;;5043459;28;20032;-72
2022/08/05 02:26:08;;;;;;;13.65;9.23;;;21.80;99.90;;;;;;5040729;28;20037;-76
2022/08/05 02:28:39;;;;;;;14.65;9.90;;;21.90;99.90;;;;;;5046609;28;20477;-76
2022/08/05 02:31:13;;;;;;;14.10;9.80;;;21.90;99.90;;;;;;5043408;28;20482;-75
2022/08/05 02:33:46;;;;;;;14.45;9.68;;;22.00;99.90;;;;;;5041034;28;20017;-74
2022/08/05 02:36:15;;;;;;;10.55;9.55;;;22.00;99.90;;;;;;5042952;28;20067;-73
2022/08/05 02:38:44;;;;;;;13.48;10.57;;;22.10;99.90;;;;;;5037539;28;20078;-74
2022/08/05 02:41:10;;;;;;;14.55;10.90;;;22.10;99.90;;;;;;5045030;28;20021;-73
2022/08/05 02:43:39;;;;;;;18.63;10.40;;;22.10;99.90;;;;;;5047053;28;20488;-73
2022/08/05 02:46:05;;;;;;;13.45;9.88;;;22.10;99.90;;;;;;5041299;28;20037;-73
2022/08/05 02:48:32;;;;;;;11.57;9.60;;;22.10;99.90;;;;;;5045532;28;20469;-73
2022/08/05 02:51:01;;;;;;;18.13;10.15;;;22.10;99.90;;;;;;5049075;28;20036;-73
2022/08/05 02:53:31;;;;;;;17.08;9.73;;;21.90;99.90;;;;;;5042271;28;20538;-72
2022/08/05 02:55:57;;;;;;;15.27;10.25;;;21.70;99.90;;;;;;5045419;28;20096;-73
2022/08/05 02:58:24;;;;;;;11.80;9.88;;;21.60;99.90;;;;;;5043398;28;20339;-73
2022/08/05 03:00:54;;;;;;;14.15;9.10;;;21.70;99.90;;;;;;5046541;28;20057;-73
2022/08/05 03:03:20;;;;;;;12.18;10.38;;;21.80;99.90;;;;;;5045400;28;20033;-73
2022/08/05 03:05:47;;;;;;;20.80;11.07;;;21.80;99.90;;;;;;5045535;28;20040;-73
2022/08/05 03:08:14;;;;;;;11.95;10.15;;;21.90;99.90;;;;;;5045195;28;20021;-73
2022/08/05 03:10:43;;;;;;;11.98;10.18;;;21.80;99.90;;;;;;5043727;28;20537;-72
2022/08/05 03:13:16;;;;;;;15.50;10.15;;;21.90;99.90;;;;;;5042354;28;20029;-73
2022/08/05 03:15:46;;;;;;;19.27;10.57;;;21.90;99.90;;;;;;5044470;28;20025;-73
2022/08/05 03:18:12;;;;;;;17.02;10.68;;;21.70;99.90;;;;;;5040046;28;20030;-73
2022/08/05 03:20:38;;;;;;;19.38;10.18;;;21.70;99.90;;;;;;5043735;28;20021;-73
2022/08/05 03:23:06;;;;;;;14.25;10.60;;;21.70;99.90;;;;;;5039085;28;20021;-73
2022/08/05 03:25:34;;;;;;;15.43;9.68;;;21.70;99.90;;;;;;5042601;28;20809;-73
2022/08/05 03:28:02;;;;;;;14.75;8.57;;;21.80;99.90;;;;;;5047465;28;20027;-73
2022/08/05 03:30:31;;;;;;;10.82;8.93;;;21.90;99.90;;;;;;5043403;28;20128;-73
2022/08/05 03:32:57;;;;;;;15.98;9.65;;;21.80;99.90;;;;;;5043659;28;20012;-73
2022/08/05 03:35:23;;;;;;;12.23;9.07;;;21.80;99.90;;;;;;5045233;28;20116;-73
2022/08/05 03:37:49;;;;;;;12.07;9.20;;;21.80;99.90;;;;;;5038056;28;20550;-73
2022/08/05 03:40:15;;;;;;;14.07;9.30;;;21.60;99.90;;;;;;5041766;28;20034;-73
2022/08/05 03:42:40;;;;;;;12.23;9.30;;;21.50;99.90;;;;;;5041224;28;20036;-73
2022/08/05 03:45:07;;;;;;;10.60;8.38;;;21.60;99.90;;;;;;5044208;28;20040;-73
2022/08/05 03:47:33;;;;;;;13.93;8.20;;;21.70;99.90;;;;;;5041079;28;20030;-73
2022/08/05 03:49:59;;;;;;;13.15;8.20;;;21.70;99.90;;;;;;5044669;28;20032;-76
2022/08/05 03:52:30;;;;;;;33.30;10.95;;;21.50;99.90;;;;;;5046581;28;20025;-77
2022/08/05 03:55:03;;;;;;;20.92;10.10;;;21.50;99.90;;;;;;5038688;28;20029;-78
2022/08/05 03:57:32;;;;;;;18.15;10.32;;;21.50;99.90;;;;;;5043534;28;20052;-77
2022/08/05 04:00:09;;;;;;;22.27;10.75;;;21.60;99.90;;;;;;5044363;28;20371;-78
2022/08/05 04:02:36;;;;;;;18.20;9.60;;;21.40;99.90;;;;;;5039677;28;20540;-79
2022/08/05 04:05:04;;;;;;;18.25;9.48;;;21.30;99.90;;;;;;5045553;28;20076;-73
2022/08/05 04:07:30;;;;;;;12.55;8.52;;;21.30;99.90;;;;;;5039116;28;20014;-75
2022/08/05 04:09:57;;;;;;;14.85;9.38;;;21.30;99.90;;;;;;5045200;28;20033;-76
2022/08/05 04:12:23;;;;;;;15.70;9.43;;;21.20;99.90;;;;;;5040155;28;20075;-78
2022/08/05 04:14:49;;;;;;;15.20;8.48;;;21.20;99.90;;;;;;5041393;28;20030;-79
2022/08/05 04:17:15;;;;;;;15.32;10.25;;;21.30;99.90;;;;;;5043156;28;20032;-74
2022/08/05 04:19:45;;;;;;;15.38;10.10;;;21.20;99.90;;;;;;5039007;28;20390;-76
2022/08/05 04:22:11;;;;;;;17.75;9.70;;;21.20;99.90;;;;;;5033950;28;20091;-78
2022/08/05 04:24:42;;;;;;;14.98;9.75;;;21.20;99.90;;;;;;5042130;28;20755;-78
2022/08/05 04:27:08;;;;;;;15.52;9.90;;;21.30;99.90;;;;;;5041618;28;20029;-76
2022/08/05 04:29:33;;;;;;;14.18;9.95;;;21.30;99.90;;;;;;5043077;28;20017;-76
2022/08/05 04:31:59;;;;;;;16.80;10.15;;;21.20;99.90;;;;;;5040370;28;20366;-76
2022/08/05 04:34:25;;;;;;;12.70;9.70;;;21.10;99.90;;;;;;5039714;28;20029;-75
2022/08/05 04:36:50;;;;;;;15.10;9.38;;;21.20;99.90;;;;;;5042446;28;20028;-75
2022/08/05 04:39:17;;;;;;;16.52;9.60;;;21.20;99.90;;;;;;5048809;28;20025;-78
2022/08/05 04:41:43;;;;;;;14.27;8.57;;;21.20;99.90;;;;;;5044679;28;20420;-76
2022/08/05 04:44:09;;;;;;;16.92;9.38;;;21.10;99.90;;;;;;5039191;28;20625;-76
2022/08/05 04:46:34;;;;;;;16.35;9.50;;;21.10;99.90;;;;;;5045854;28;20074;-76
2022/08/05 04:49:00;;;;;;;11.90;8.63;;;21.10;99.90;;;;;;5039938;28;20028;-75
2022/08/05 04:51:25;;;;;;;14.43;10.20;;;21.10;99.90;;;;;;5043114;28;20030;-75
2022/08/05 04:53:51;;;;;;;14.32;9.30;;;21.20;99.90;;;;;;5038608;28;20014;-76
2022/08/05 04:56:17;;;;;;;12.43;9.85;;;21.20;99.90;;;;;;5037908;28;20394;-77
2022/08/05 04:58:43;;;;;;;13.02;9.55;;;21.10;99.90;;;;;;5044018;28;20416;-76
2022/08/05 05:01:08;;;;;;;18.17;10.55;;;20.90;99.90;;;;;;5045035;28;20087;-76
2022/08/05 05:03:34;;;;;;;11.57;9.65;;;20.90;99.90;;;;;;5038166;28;20087;-74
2022/08/05 05:06:00;;;;;;;17.23;10.90;;;21.00;99.90;;;;;;5043931;28;20040;-74
2022/08/05 05:08:25;;;;;;;14.77;10.23;;;21.10;99.90;;;;;;5042361;28;20071;-74
2022/08/05 05:10:51;;;;;;;16.80;9.07;;;21.20;99.90;;;;;;5041489;28;20032;-73
2022/08/05 05:13:17;;;;;;;16.92;10.43;;;21.20;99.90;;;;;;5041255;28;20028;-73
2022/08/05 05:15:44;;;;;;;13.05;9.43;;;21.20;99.90;;;;;;5048334;28;20119;-74
2022/08/05 05:18:14;;;;;;;11.73;9.30;;;21.00;99.90;;;;;;5037659;28;20030;-74
2022/08/05 05:20:42;;;;;;;14.07;10.07;;;21.10;99.90;;;;;;5039601;28;20029;-74
2022/08/05 05:23:09;;;;;;;12.65;9.38;;;21.00;99.90;;;;;;5042438;28;20516;-74
2022/08/05 05:25:34;;;;;;;14.30;10.55;;;20.90;99.90;;;;;;5047943;28;20035;-74
2022/08/05 05:28:00;;;;;;;13.68;9.40;;;20.90;99.90;;;;;;5039876;28;20030;-74
2022/08/05 05:30:26;;;;;;;13.18;10.35;;;20.90;99.90;;;;;;5041573;28;20088;-74
2022/08/05 05:32:52;;;;;;;12.40;10.60;;;21.00;99.90;;;;;;5040812;28;20017;-74
2022/08/05 05:35:18;;;;;;;13.35;10.55;;;20.90;99.90;;;;;;5039612;28;20029;-72
2022/08/05 05:37:56;;;;;;;17.45;10.98;;;20.90;99.90;;;;;;5048610;28;20025;-74
2022/08/05 05:40:23;;;;;;;15.55;10.38;;;21.00;99.90;;;;;;5037104;28;20087;-74
2022/08/05 05:42:50;;;;;;;11.25;9.20;;;20.90;99.90;;;;;;5048766;28;20029;-74
2022/08/05 05:45:16;;;;;;;12.43;9.32;;;21.00;99.90;;;;;;5037603;28;20316;-74
2022/08/05 05:47:43;;;;;;;11.60;8.55;;;21.00;99.90;;;;;;5043176;28;20025;-73
2022/08/05 05:50:11;;;;;;;9.93;7.85;;;20.90;99.90;;;;;;5041086;28;20021;-74
2022/08/05 05:52:37;;;;;;;15.00;8.77;;;20.90;99.90;;;;;;5043837;28;20021;-73
2022/08/05 05:55:05;;;;;;;11.75;8.20;;;20.80;99.90;;;;;;5040719;28;20075;-73
2022/08/05 05:57:30;;;;;;;12.38;8.07;;;20.80;99.90;;;;;;5037249;28;20032;-74
2022/08/05 05:59:56;;;;;;;11.93;8.27;;;20.70;99.90;;;;;;5042395;28;20037;-74
2022/08/05 06:02:22;;;;;;;12.60;8.00;;;20.60;99.90;;;;;;5040711;28;20057;-73
2022/08/05 06:04:47;;;;;;;13.30;7.55;;;20.50;99.90;;;;;;5046812;28;20025;-73
2022/08/05 06:07:13;;;;;;;15.50;8.13;;;20.60;99.90;;;;;;5038993;28;20029;-74
2022/08/05 06:09:39;;;;;;;13.75;7.43;;;20.60;99.90;;;;;;5042160;28;20021;-73
2022/08/05 06:12:05;;;;;;;8.82;6.70;;;20.60;99.90;;;;;;5042412;28;20017;-73
2022/08/05 06:14:31;;;;;;;11.55;6.85;;;20.50;99.90;;;;;;5042971;28;20067;-73
2022/08/05 06:16:58;;;;;;;14.43;7.22;;;20.50;99.90;;;;;;5043047;28;20028;-73
2022/08/05 06:19:24;;;;;;;10.10;6.32;;;20.50;99.90;;;;;;5040921;28;20028;-73
2022/08/05 06:21:50;;;;;;;11.05;6.78;;;20.50;99.90;;;;;;5041497;28;20478;-73
2022/08/05 06:24:15;;;;;;;9.57;6.78;;;20.50;99.90;;;;;;5042442;28;20026;-73
2022/08/05 06:26:41;;;;;;;10.40;6.35;;;20.50;99.90;;;;;;5032974;28;20033;-73
2022/08/05 06:29:07;;;;;;;12.25;6.70;;;20.50;99.90;;;;;;5039324;28;20128;-73
2022/08/05 06:31:33;;;;;;;10.38;6.57;;;20.60;99.90;;;;;;5045971;28;20529;-72
2022/08/05 06:33:58;;;;;;;13.00;6.20;;;20.50;99.90;;;;;;5042605;28;20116;-73
2022/08/05 06:36:24;;;;;;;12.27;7.25;;;20.60;99.90;;;;;;5044293;28;20032;-73
2022/08/05 06:38:53;;;;;;;8.27;5.45;;;20.60;99.90;;;;;;5044115;28;20041;-72
2022/08/05 06:41:19;;;;;;;12.30;6.15;;;20.70;99.90;;;;;;5044873;28;20024;-72
2022/08/05 06:43:45;;;;;;;9.00;5.85;;;20.70;99.90;;;;;;5041558;28;20014;-73
2022/08/05 06:46:11;;;;;;;13.32;6.22;;;20.70;99.90;;;;;;5045384;28;20041;-73
2022/08/05 06:48:36;;;;;;;12.75;6.03;;;20.80;99.90;;;;;;5039822;28;20024;-72
2022/08/05 06:51:03;;;;;;;10.88;6.70;;;20.80;99.90;;;;;;5046188;28;20175;-72
2022/08/05 06:53:29;;;;;;;9.10;5.32;;;20.80;99.90;;;;;;5041180;28;20063;-72
2022/08/05 06:55:59;;;;;;;8.80;5.50;;;20.80;99.90;;;;;;5045336;28;20045;-72
2022/08/05 06:58:25;;;;;;;13.02;6.15;;;20.80;99.90;;;;;;5042857;28;20090;-73
2022/08/05 07:00:51;;;;;;;10.15;5.70;;;20.90;99.90;;;;;;5043872;28;20096;-72
2022/08/05 07:03:16;;;;;;;8.35;5.60;;;20.80;99.90;;;;;;5047681;28;20050;-73
2022/08/05 07:05:42;;;;;;;7.97;5.90;;;20.90;99.90;;;;;;5040235;28;20041;-73
2022/08/05 07:08:08;;;;;;;7.68;6.13;;;20.90;99.90;;;;;;5046170;28;20544;-72
2022/08/05 07:10:34;;;;;;;6.47;5.88;;;21.00;99.90;;;;;;5039988;28;20033;-72
2022/08/05 07:18:28;;;;;;;9.95;6.75;;;21.10;99.90;;;;;;5046549;28;20055;-72
2022/08/05 07:20:53;;;;;;;9.20;6.80;;;21.10;99.90;;;;;;5041658;28;20470;-72
2022/08/05 07:23:19;;;;;;;10.90;6.18;;;21.20;99.90;;;;;;5043129;28;20029;-72
2022/08/05 07:25:44;;;;;;;12.57;6.70;;;21.10;99.90;;;;;;5042747;28;20044;-72
2022/08/05 07:28:10;;;;;;;12.07;7.60;;;21.10;99.90;;;;;;5041764;28;20560;-72
2022/08/05 07:30:36;;;;;;;14.88;6.28;;;21.10;99.90;;;;;;5039505;28;20108;-72
2022/08/05 07:33:08;;;;;;;11.07;6.68;;;21.20;99.90;;;;;;5050064;28;20405;-72
2022/08/05 07:35:33;;;;;;;9.75;5.93;;;21.30;99.90;;;;;;5048494;28;20032;-72
2022/08/05 07:37:59;;;;;;;9.45;6.57;;;21.30;99.90;;;;;;5044309;28;20021;-72
2022/08/05 07:40:25;;;;;;;11.98;7.60;;;21.40;99.90;;;;;;5037493;28;20037;-72
2022/08/05 07:42:50;;;;;;;13.95;7.85;;;21.50;99.90;;;;;;5049768;28;20511;-72
2022/08/05 07:45:16;;;;;;;17.40;8.70;;;21.60;99.90;;;;;;5041840;28;20552;-73
2022/08/05 07:47:41;;;;;;;14.02;8.77;;;21.60;99.90;;;;;;5047722;28;20044;-72
2022/08/05 07:50:08;;;;;;;14.02;8.07;;;21.60;99.90;;;;;;5049262;28;20412;-72
2022/08/05 07:52:38;;;;;;;16.02;9.68;;;21.50;99.90;;;;;;5044823;28;20021;-72
2022/08/05 07:55:05;;;;;;;15.77;9.90;;;21.50;99.90;;;;;;5047824;28;20036;-72
2022/08/05 07:57:30;;;;;;;12.50;9.50;;;21.60;99.90;;;;;;5046474;28;20238;-72
2022/08/05 07:59:56;;;;;;;15.88;10.02;;;21.70;99.90;;;;;;5044340;28;20163;-72
2022/08/05 08:02:27;;;;;;;16.10;11.00;;;21.80;99.90;;;;;;5038654;28;20159;-73
2022/08/05 08:04:54;;;;;;;24.35;12.23;;;21.80;99.90;;;;;;5045549;28;20047;-72
2022/08/05 08:07:20;;;;;;;15.18;11.68;;;21.70;99.90;;;;;;5041771;28;20148;-72
2022/08/05 08:09:46;;;;;;;25.70;13.18;;;21.80;99.90;;;;;;5039817;28;20497;-72
2022/08/05 08:12:12;;;;;;;17.77;12.68;;;21.80;99.90;;;;;;5040662;28;20018;-72
2022/08/05 08:14:38;;;;;;;17.52;11.73;;;21.90;99.90;;;;;;5041042;28;20024;-72
2022/08/05 08:17:09;;;;;;;15.10;11.80;;;21.90;99.90;;;;;;5038538;28;20033;-72
2022/08/05 08:19:38;;;;;;;16.05;12.02;;;21.90;99.90;;;;;;5043933;28;20489;-72
2022/08/05 08:22:05;;;;;;;18.13;12.98;;;21.80;99.90;;;;;;5040343;28;20032;-72
2022/08/05 08:24:30;;;;;;;21.33;13.45;;;21.80;99.90;;;;;;5040811;28;20030;-72
2022/08/05 08:26:57;;;;;;;20.30;13.18;;;21.80;99.90;;;;;;5043013;28;20493;-72
2022/08/05 08:29:22;;;;;;;17.95;12.27;;;21.80;99.90;;;;;;5036449;28;20028;-72
2022/08/05 08:31:49;;;;;;;19.75;12.43;;;21.70;99.90;;;;;;5044553;28;20079;-72
2022/08/05 08:34:16;;;;;;;18.95;13.00;;;21.70;99.90;;;;;;5039738;28;20022;-72
2022/08/05 08:36:42;;;;;;;16.55;12.00;;;21.90;99.90;;;;;;5041667;28;20128;-72
2022/08/05 08:39:07;;;;;;;18.02;12.10;;;22.10;99.90;;;;;;5043292;28;20108;-72
2022/08/05 08:41:36;;;;;;;25.88;13.90;;;22.40;99.90;;;;;;5044290;28;20466;-72
2022/08/05 08:44:03;;;;;;;19.20;12.88;;;22.60;99.90;;;;;;5046964;28;20079;-72
2022/08/05 08:46:31;;;;;;;14.40;9.02;;;22.70;99.90;;;;;;5042911;28;20509;-72
2022/08/05 08:48:58;;;;;;;13.13;8.25;;;23.00;99.90;;;;;;5039812;28;20026;-73
2022/08/05 08:51:28;;;;;;;11.88;8.93;;;23.10;99.90;;;;;;5039070;28;20389;-72
2022/08/05 08:53:54;;;;;;;14.27;7.93;;;23.00;99.90;;;;;;5041102;28;20025;-73
2022/08/05 08:56:20;;;;;;;13.60;8.20;;;22.90;99.90;;;;;;5039632;28;20045;-72
2022/08/05 08:58:46;;;;;;;11.15;6.72;;;22.90;99.90;;;;;;5036995;28;20073;-73
2022/08/05 09:01:12;;;;;;;10.85;6.82;;;22.80;99.90;;;;;;5042737;28;20549;-72
2022/08/05 09:03:39;;;;;;;9.85;7.25;;;22.90;99.90;;;;;;5038853;28;20029;-72
2022/08/05 09:06:05;;;;;;;12.30;7.00;;;22.80;99.90;;;;;;5041386;28;20041;-73
2022/08/05 09:08:30;;;;;;;11.10;5.95;;;22.80;99.90;;;;;;5042584;28;20029;-72
2022/08/05 09:10:57;;;;;;;10.23;5.90;;;22.70;99.90;;;;;;5039517;28;20032;-72
2022/08/05 09:13:23;;;;;;;11.90;5.75;;;22.60;99.90;;;;;;5039869;28;20025;-72
2022/08/05 09:15:49;;;;;;;12.05;7.13;;;22.60;99.90;;;;;;5041374;28;20013;-72
2022/08/05 09:18:15;;;;;;;10.32;5.13;;;22.50;99.90;;;;;;5043197;28;20079;-72
2022/08/05 09:20:43;;;;;;;5.10;4.20;;;22.50;99.90;;;;;;5041820;28;20029;-72
2022/08/05 09:23:10;;;;;;;5.90;5.07;;;22.60;99.90;;;;;;5046830;28;20547;-72
2022/08/05 09:25:41;;;;;;;11.23;5.32;;;22.60;99.90;;;;;;5046390;28;20131;-72
2022/08/05 09:28:16;;;;;;;10.18;4.45;;;22.70;99.90;;;;;;5039573;28;20025;-72
2022/08/05 09:30:56;;;;;;;7.00;4.63;;;22.80;99.90;;;;;;5038438;28;20056;-72
2022/08/05 09:33:22;;;;;;;6.72;3.80;;;22.80;99.90;;;;;;5041336;28;20118;-72
2022/08/05 09:35:59;;;;;;;7.10;2.88;;;22.80;99.90;;;;;;5034708;28;20028;-73
2022/08/05 09:38:26;;;;;;;8.50;3.80;;;22.70;99.90;;;;;;5037711;28;20063;-74
2022/08/05 09:40:53;;;;;;;8.27;3.72;;;22.70;99.90;;;;;;5036386;28;20071;-74
2022/08/05 09:43:33;;;;;;;8.27;3.28;;;22.70;99.90;;;;;;5039214;28;20017;-70
2022/08/05 09:45:59;;;;;;;7.60;3.88;;;22.70;99.90;;;;;;5041725;28;20053;-73
2022/08/05 09:48:28;;;;;;;4.60;3.10;;;22.70;99.90;;;;;;5043485;28;20028;-72
2022/08/05 09:51:00;;;;;;;9.93;3.00;;;22.80;99.90;;;;;;5038019;28;20028;-73
2022/08/05 09:53:26;;;;;;;;;;;22.80;99.90;;;;;;5038471;28;20091;-74
2022/08/05 09:55:55;;;;;;;6.13;2.90;;;23.00;99.90;;;;;;5039785;28;19944;-73
2022/08/05 09:58:22;;;;;;;4.90;2.92;;;23.00;99.90;;;;;;5048555;28;20493;-74
2022/08/05 10:01:03;;;;;;;12.07;3.10;;;23.10;99.90;;;;;;5038643;28;20060;-74
2022/08/05 10:03:29;;;;;;;7.30;3.45;;;23.30;99.90;;;;;;5041093;28;20384;-74
2022/08/05 10:06:07;;;;;;;8.25;3.03;;;23.50;99.90;;;;;;5042476;28;20041;-74
2022/08/05 10:08:34;;;;;;;5.25;2.78;;;23.70;99.90;;;;;;5041263;28;20021;-74
2022/08/05 10:11:03;;;;;;;4.22;2.63;;;24.00;99.90;;;;;;5046968;28;20359;-74
2022/08/05 10:13:36;;;;;;;7.03;2.70;;;24.30;99.90;;;;;;5050902;28;20067;-75
2022/08/05 10:16:04;;;;;;;6.88;3.03;;;24.50;99.90;;;;;;5052800;28;20044;-74
2022/08/05 10:18:31;;;;;;;6.57;2.97;;;24.10;99.90;;;;;;5039102;28;20172;-73
2022/08/05 10:21:03;;;;;;;4.65;2.75;;;24.20;99.90;;;;;;5047288;28;20462;-73
2022/08/05 10:23:38;;;;;;;8.90;2.78;;;24.20;99.90;;;;;;5043653;28;20021;-73
2022/08/05 10:26:06;;;;;;;6.03;3.00;;;24.30;99.90;;;;;;5042446;28;20071;-73
2022/08/05 10:28:33;;;;;;;7.32;2.38;;;24.20;99.90;;;;;;5041900;28;20021;-73
2022/08/05 10:30:59;;;;;;;6.32;2.55;;;23.90;99.90;;;;;;5046347;28;20390;-73
2022/08/05 10:33:28;;;;;;;5.28;2.40;;;23.70;99.90;;;;;;5048615;28;20112;-74
2022/08/05 10:35:55;;;;;;;6.63;2.20;;;23.30;99.90;;;;;;5038988;28;20021;-73
2022/08/05 10:38:24;;;;;;;5.72;2.17;;;23.20;99.90;;;;;;5041093;28;20489;-74
2022/08/05 10:40:50;;;;;;;3.85;2.60;;;23.10;99.90;;;;;;5040857;28;20030;-73
2022/08/05 10:43:41;;;;;;;5.47;2.58;;;23.10;99.90;;;;;;5046256;28;20029;-74
2022/08/05 10:46:09;;;;;;;2.97;2.30;;;23.00;99.90;;;;;;5044441;28;20092;-74
2022/08/05 10:48:37;;;;;;;6.22;2.33;;;23.10;99.90;;;;;;5045757;28;20024;-73
2022/08/05 10:51:12;;;;;;;7.22;2.90;;;23.20;99.90;;;;;;5040065;28;20076;-72
2022/08/05 10:53:54;;;;;;;8.82;2.08;;;23.40;99.90;;;;;;5046121;28;20028;-74
2022/08/05 10:56:24;;;;;;;4.28;2.15;;;23.60;99.90;;;;;;5044732;28;20040;-74
2022/08/05 10:58:53;;;;;;;5.93;2.22;;;23.90;99.90;;;;;;5048850;28;20065;-74
2022/08/05 11:01:31;;;;;;;4.57;1.90;;;23.90;99.90;;;;;;5041851;28;20433;-74
2022/08/05 11:04:03;;;;;;;8.18;2.67;;;23.90;99.90;;;;;;5049102;28;20096;-75
2022/08/05 11:06:29;;;;;;;6.18;2.03;;;24.20;99.90;;;;;;5045625;28;20095;-74
2022/08/05 11:09:16;;;;;;;5.55;1.90;;;24.20;99.90;;;;;;5044644;28;20017;-74
2022/08/05 11:11:43;;;;;;;3.80;1.83;;;24.10;99.90;;;;;;5045312;28;20051;-73
2022/08/05 11:14:11;;;;;;;2.42;1.40;;;23.80;99.90;;;;;;5044426;28;20394;-74
2022/08/05 11:16:37;;;;;;;7.15;1.92;;;23.60;99.90;;;;;;5049854;28;20049;-75
2022/08/05 11:19:28;;;;;;;3.63;1.98;;;23.50;99.90;;;;;;5045768;28;20474;-74
2022/08/05 11:22:34;;;;;;;7.00;2.03;;;23.50;99.90;;;;;;5043098;28;20383;-74
2022/08/05 11:25:42;;;;;;;7.28;1.95;;;23.80;99.90;;;;;;5041746;28;20103;-74
2022/08/05 11:28:11;;;;;;;4.90;2.15;;;24.10;99.90;;;;;;5042364;28;20028;-73
2022/08/05 11:31:00;;;;;;;7.85;1.70;;;24.30;99.90;;;;;;5049567;28;20160;-74
2022/08/05 11:33:29;;;;;;;4.22;1.48;;;24.40;99.90;;;;;;5045016;28;20354;-74
2022/08/05 11:36:01;;;;;;;2.80;1.60;;;24.40;99.90;;;;;;5040078;28;20083;-74
2022/08/05 11:38:42;;;;;;;4.00;1.38;;;24.40;99.90;;;;;;5042243;28;20032;-73
2022/08/05 11:41:08;;;;;;;3.25;1.23;;;24.50;99.90;;;;;;5048286;28;20104;-73
2022/08/05 11:43:34;;;;;;;5.05;0.98;;;24.80;99.90;;;;;;5040195;28;20029;-72
2022/08/05 11:46:00;;;;;;;4.65;1.45;;;25.00;99.90;;;;;;5044736;28;20029;-72
2022/08/05 11:48:27;;;;;;;2.10;0.93;;;25.20;99.90;;;;;;5042573;28;20025;-72
2022/08/05 11:50:54;;;;;;;3.85;0.80;;;25.30;99.90;;;;;;5040155;28;20021;-71
2022/08/05 11:53:20;;;;;;;3.60;1.13;;;25.40;99.90;;;;;;5046171;28;20064;-72
2022/08/05 11:55:59;;;;;;;1.17;0.70;;;25.50;99.90;;;;;;5045565;28;20052;-73
2022/08/05 11:58:33;;;;;;;4.18;0.90;;;25.60;99.90;;;;;;5043088;28;20375;-73
2022/08/05 12:01:04;;;;;;;2.83;0.80;;;25.80;99.90;;;;;;5048209;28;20440;-73
2022/08/05 12:03:52;;;;;;;1.95;1.00;;;26.00;99.30;;;;;;5045761;28;20029;-72
2022/08/05 12:06:23;;;;;;;1.08;0.70;;;26.10;99.50;;;;;;5043745;28;20531;-72
2022/08/05 12:08:54;;;;;;;1.63;1.08;;;26.20;99.20;;;;;;5039312;28;20013;-72
2022/08/05 12:11:25;;;;;;;3.35;1.13;;;26.30;99.90;;;;;;5042497;28;20068;-72
2022/08/05 12:14:02;;;;;;;1.17;0.93;;;26.40;98.10;;;;;;5046220;28;20021;-73
2022/08/05 12:16:34;;;;;;;5.55;0.50;;;26.50;97.40;;;;;;5039293;28;20411;-73
2022/08/05 12:19:00;;;;;;;2.08;0.88;;;26.60;97.80;;;;;;5044819;28;20057;-72
2022/08/05 12:21:28;;;;;;;4.47;0.60;;;26.60;98.00;;;;;;5047086;28;20072;-72
2022/08/05 12:24:05;;;;;;;3.92;0.82;;;26.60;96.10;;;;;;5047855;28;20482;-72
2022/08/05 12:26:36;;;;;;;2.47;0.95;;;26.50;96.90;;;;;;5040556;28;20092;-72
2022/08/05 12:29:04;;;;;;;1.33;0.68;;;26.60;96.10;;;;;;5039687;28;20053;-72
2022/08/05 12:31:32;;;;;;;3.55;0.90;;;26.50;96.40;;;;;;5045226;28;20031;-73
2022/08/05 12:33:59;;;;;;;3.65;0.98;;;26.40;97.10;;;;;;5042412;28;20032;-72
2022/08/05 12:36:25;;;;;;;4.43;0.82;;;26.30;97.00;;;;;;5046976;28;20018;-72
2022/08/05 12:38:50;;;;;;;1.30;0.75;;;26.00;97.40;;;;;;5039419;28;20108;-73
2022/08/05 12:41:16;;;;;;;2.35;0.70;;;25.80;97.90;;;;;;5038469;28;20032;-73
2022/08/05 12:43:55;;;;;;;2.95;0.88;;;26.00;99.40;;;;;;5043300;28;20064;-72
2022/08/05 12:46:22;;;;;;;3.35;0.88;;;26.20;99.30;;;;;;5039449;28;20385;-72
2022/08/05 12:49:05;;;;;;;5.60;0.98;;;26.20;99.00;;;;;;5038131;28;20052;-72
2022/08/05 12:51:41;;;;;;;3.10;0.90;;;26.20;98.50;;;;;;5045221;28;20041;-71